Time;durP1;ratioP1;P1;durP2;ratioP2;P2;SDS_P1;SDS_P2;PMS_P1;PMS_P2;Temp;Humidity;BMP_temperature;BMP_pressure;BME280_temperature;BME280_humidity;BME280_pressure;Samples;Min_cycle;Max_cycle;Signal;HPM_P1;HPM_P2
2022/04/23 00:01:52;;;;;;;18.77;12.35;;;;;;;8.49;100.00;99172.09;4501335;31;20107;-69
2022/04/23 00:04:19;;;;;;;16.90;11.73;;;;;;;8.49;100.00;99180.00;4501326;31;20152;-69
2022/04/23 00:06:46;;;;;;;16.35;12.10;;;;;;;8.48;100.00;99186.16;4501390;31;20215;-69
2022/04/23 00:09:14;;;;;;;18.15;12.35;;;;;;;8.47;100.00;99183.53;4501275;31;20141;-70
2022/04/23 00:11:41;;;;;;;16.67;12.05;;;;;;;8.46;100.00;99179.19;4500954;31;20103;-69
2022/04/23 00:14:08;;;;;;;19.17;12.18;;;;;;;8.48;100.00;99183.53;4501184;31;20454;-70
2022/04/23 00:16:35;;;;;;;16.95;12.15;;;;;;;8.49;100.00;99187.84;4501419;31;20138;-69
2022/04/23 00:19:03;;;;;;;19.30;12.75;;;;;;;8.51;100.00;99190.44;4501351;31;20191;-69
2022/04/23 00:21:30;;;;;;;19.48;12.57;;;;;;;8.51;100.00;99186.03;4500989;31;20095;-69
2022/04/23 00:23:57;;;;;;;17.65;13.00;;;;;;;8.50;100.00;99188.72;4500541;31;20744;-69
2022/04/23 00:26:25;;;;;;;19.25;13.05;;;;;;;8.49;100.00;99189.62;4501068;31;20152;-69
2022/04/23 00:28:52;;;;;;;22.45;13.38;;;;;;;8.46;100.00;99185.31;4500998;31;20122;-69
2022/04/23 00:31:19;;;;;;;21.62;13.35;;;;;;;8.44;100.00;99192.34;4500841;31;20130;-69
2022/04/23 00:33:46;;;;;;;20.50;13.43;;;;;;;8.40;100.00;99189.81;4501039;31;20151;-69
2022/04/23 00:36:14;;;;;;;17.40;12.70;;;;;;;8.39;100.00;99188.97;4500935;31;20178;-69
2022/04/23 00:38:42;;;;;;;21.15;14.00;;;;;;;8.40;100.00;99188.06;4500847;31;20099;-70
2022/04/23 00:41:45;;;;;;;15.52;12.30;;;;;;;8.41;100.00;99186.28;4500902;31;20529;-69
2022/04/23 00:44:01;;;;;;;17.42;11.63;;;;;;;8.49;100.00;99194.88;4500800;31;21058;-69
2022/04/23 00:46:28;;;;;;;17.52;12.82;;;;;;;8.50;100.00;99191.34;4500683;31;20083;-69
2022/04/23 00:48:58;;;;;;;17.58;12.65;;;;;;;8.52;100.00;99190.41;4486040;31;20411;-70
2022/04/23 00:51:29;;;;;;;24.12;12.70;;;;;;;8.47;100.00;99189.66;4500680;31;20218;-70
2022/04/23 00:53:57;;;;;;;16.87;12.15;;;;;;;8.48;100.00;99193.13;4500723;31;20344;-69
2022/04/23 00:56:25;;;;;;;17.08;12.43;;;;;;;8.52;100.00;99193.03;4500590;31;20114;-69
2022/04/23 00:58:53;;;;;;;19.95;13.02;;;;;;;8.57;100.00;99188.53;4500551;31;20131;-69
2022/04/23 01:01:23;;;;;;;18.17;12.32;;;;;;;8.51;100.00;99191.28;4500411;31;20103;-69
2022/04/23 01:03:53;;;;;;;18.37;13.05;;;;;;;8.46;100.00;99195.81;4500566;31;20513;-70
2022/04/23 01:06:23;;;;;;;18.30;13.93;;;;;;;8.43;100.00;99193.25;4500645;31;20195;-69
2022/04/23 01:08:50;;;;;;;19.52;13.00;;;;;;;8.44;100.00;99199.34;4500378;31;20526;-70
2022/04/23 01:11:18;;;;;;;17.37;12.13;;;;;;;8.45;100.00;99198.47;4500474;31;20123;-69
2022/04/23 01:13:45;;;;;;;17.33;11.93;;;;;;;8.44;100.00;99196.72;4500437;31;20105;-69
2022/04/23 01:16:12;;;;;;;20.30;13.40;;;;;;;8.43;100.00;99200.25;4500258;31;20118;-69
2022/04/23 01:18:41;;;;;;;21.37;13.05;;;;;;;8.45;100.00;99194.09;4500307;31;20212;-69
2022/04/23 01:21:10;;;;;;;19.27;12.95;;;;;;;8.51;100.00;99190.44;4500169;31;20129;-69
2022/04/23 01:23:41;;;;;;;17.33;11.35;;;;;;;8.53;100.00;99200.00;4500180;31;20087;-69
2022/04/23 01:26:10;;;;;;;12.70;10.63;;;;;;;8.57;100.00;99203.44;4500444;31;20311;-69
2022/04/23 01:28:38;;;;;;;16.77;10.55;;;;;;;8.64;100.00;99193.66;4500024;31;20590;-69
2022/04/23 01:31:05;;;;;;;19.30;11.77;;;;;;;8.66;100.00;99202.34;4499917;31;20171;-69
2022/04/23 01:33:33;;;;;;;25.35;11.68;;;;;;;8.65;100.00;99195.38;4500476;31;20142;-69
2022/04/23 01:36:02;;;;;;;16.05;11.10;;;;;;;8.68;100.00;99195.31;4502658;31;20095;-69
2022/04/23 01:38:29;;;;;;;14.02;10.60;;;;;;;8.64;100.00;99191.88;4502430;31;20150;-69
2022/04/23 01:40:56;;;;;;;14.30;11.20;;;;;;;8.72;100.00;99194.34;4502356;31;20591;-69
2022/04/23 01:43:24;;;;;;;14.35;10.63;;;;;;;8.74;100.00;99193.41;4502454;31;20083;-69
2022/04/23 01:45:51;;;;;;;14.95;10.43;;;;;;;8.70;100.00;99197.00;4502213;31;20122;-69
2022/04/23 01:48:18;;;;;;;14.93;10.10;;;;;;;8.66;100.00;99192.72;4502227;31;20104;-69
2022/04/23 01:50:45;;;;;;;18.65;12.37;;;;;;;8.69;100.00;99199.66;4502343;31;20091;-69
2022/04/23 01:53:12;;;;;;;18.15;10.75;;;;;;;8.75;100.00;99199.53;4502267;31;20514;-69
2022/04/23 01:55:40;;;;;;;17.87;12.65;;;;;;;8.74;100.00;99200.44;4502259;31;20137;-69
2022/04/23 01:58:07;;;;;;;18.85;12.05;;;;;;;8.67;100.00;99204.94;4502282;31;20095;-69
2022/04/23 02:00:34;;;;;;;21.77;14.13;;;;;;;8.69;100.00;99202.28;4502163;31;20130;-69
2022/04/23 02:03:01;;;;;;;22.02;13.32;;;;;;;8.66;100.00;99208.50;4502176;31;20163;-69
2022/04/23 02:05:29;;;;;;;16.12;11.90;;;;;;;8.67;100.00;99204.09;4502221;31;20095;-69
2022/04/23 02:07:56;;;;;;;20.35;13.60;;;;;;;8.64;100.00;99206.78;4502141;31;20096;-69
2022/04/23 02:10:23;;;;;;;22.35;13.38;;;;;;;8.63;100.00;99208.56;4502112;31;20127;-69
2022/04/23 02:12:50;;;;;;;18.83;13.13;;;;;;;8.64;100.00;99206.78;4502081;31;20466;-69
2022/04/23 02:15:18;;;;;;;24.63;14.18;;;;;;;8.66;100.00;99211.13;4502288;31;20091;-69
2022/04/23 02:17:49;;;;;;;22.33;13.65;;;;;;;8.64;100.00;99210.28;4502069;31;20417;-69
2022/04/23 02:20:16;;;;;;;20.83;13.07;;;;;;;8.59;100.00;99210.38;4502334;31;20091;-69
2022/04/23 02:22:44;;;;;;;21.10;14.50;;;;;;;8.63;100.00;99212.94;4502074;31;20079;-69
2022/04/23 02:25:12;;;;;;;16.75;12.05;;;;;;;8.54;100.00;99208.75;4502135;31;20088;-69
2022/04/23 02:27:44;;;;;;;21.50;14.63;;;;;;;8.50;100.00;99214.97;4501965;31;20557;-69
2022/04/23 02:30:13;;;;;;;22.45;13.65;;;;;;;8.40;100.00;99216.94;4502109;31;20103;-69
2022/04/23 02:32:41;;;;;;;19.00;13.30;;;;;;;8.36;100.00;99217.88;4501863;31;20131;-69
2022/04/23 02:35:10;;;;;;;19.92;13.80;;;;;;;8.40;100.00;99214.31;4501966;31;20113;-69
2022/04/23 02:37:37;;;;;;;19.58;14.00;;;;;;;8.42;100.00;99216.91;4502112;31;20096;-69
2022/04/23 02:40:08;;;;;;;21.48;14.57;;;;;;;8.40;100.00;99218.69;4501869;31;20142;-69
2022/04/23 02:42:38;;;;;;;18.77;12.77;;;;;;;8.37;100.00;99223.13;4502038;31;20080;-69
2022/04/23 02:45:10;;;;;;;18.50;13.52;;;;;;;8.40;100.00;99226.56;4501427;31;20135;-69
2022/04/23 02:47:46;;;;;;;21.92;14.32;;;;;;;8.38;100.00;99224.84;4501982;31;20084;-69
2022/04/23 02:50:15;;;;;;;19.75;14.43;;;;;;;8.35;100.00;99224.88;4501942;31;20167;-69
2022/04/23 02:52:44;;;;;;;18.00;13.48;;;;;;;8.36;100.00;99217.88;4501735;31;20387;-69
2022/04/23 02:55:11;;;;;;;24.17;15.45;;;;;;;8.48;100.00;99220.28;4501797;31;20118;-69
2022/04/23 02:57:42;;;;;;;26.27;15.23;;;;;;;8.49;100.00;99216.75;4501737;31;20111;-69
2022/04/23 03:00:10;;;;;;;26.20;16.67;;;;;;;8.57;100.00;99222.66;4501947;31;20088;-69
2022/04/23 03:02:38;;;;;;;27.92;16.65;;;;;;;8.56;100.00;99223.59;4501999;31;20140;-69
2022/04/23 03:05:11;;;;;;;24.17;16.70;;;;;;;8.52;100.00;99221.06;4501774;31;20197;-69
2022/04/23 03:07:39;;;;;;;22.48;15.85;;;;;;;8.52;100.00;99226.31;4501916;31;20088;-69
2022/04/23 03:10:09;;;;;;;22.85;15.50;;;;;;;8.48;100.00;99236.03;4501684;31;20844;-69
2022/04/23 03:12:38;;;;;;;20.85;15.07;;;;;;;8.41;100.00;99229.19;4501661;31;20076;-69
2022/04/23 03:15:13;;;;;;;22.27;15.07;;;;;;;8.37;100.00;99224.84;4501901;31;20134;-69
2022/04/23 03:17:40;;;;;;;23.60;14.63;;;;;;;8.32;100.00;99230.19;4501702;31;20091;-69
2022/04/23 03:20:08;;;;;;;21.95;14.77;;;;;;;8.28;100.00;99222.41;4501657;31;20088;-69
2022/04/23 03:22:39;;;;;;;19.98;14.18;;;;;;;8.28;100.00;99223.28;4501924;31;20114;-69
2022/04/23 03:25:08;;;;;;;22.75;13.85;;;;;;;8.30;100.00;99226.75;4501657;31;20167;-69
2022/04/23 03:27:36;;;;;;;18.70;14.20;;;;;;;8.32;100.00;99235.44;4501535;31;20088;-69
2022/04/23 03:30:04;;;;;;;27.60;16.65;;;;;;;8.38;100.00;99229.25;4501494;31;20107;-69
2022/04/23 03:32:32;;;;;;;20.10;14.30;;;;;;;8.35;100.00;99231.91;4501362;31;20139;-69
2022/04/23 03:34:59;;;;;;;18.83;13.82;;;;;;;8.40;100.00;99232.69;4501585;31;20158;-69
2022/04/23 03:37:26;;;;;;;20.67;14.98;;;;;;;8.44;100.00;99234.34;4501480;31;20084;-69
2022/04/23 03:39:53;;;;;;;25.70;16.33;;;;;;;8.47;100.00;99247.41;4501684;31;20111;-69
2022/04/23 03:42:21;;;;;;;22.87;16.27;;;;;;;8.50;100.00;99254.34;4501446;31;20138;-69
2022/04/23 03:44:48;;;;;;;25.85;15.43;;;;;;;8.49;100.00;99248.25;4501487;31;20091;-69
2022/04/23 03:47:15;;;;;;;18.10;14.07;;;;;;;8.44;100.00;99252.72;4501567;31;20107;-70
2022/04/23 03:49:43;;;;;;;23.10;14.38;;;;;;;8.42;100.00;99254.53;4501397;31;20099;-69
2022/04/23 03:52:10;;;;;;;22.50;14.00;;;;;;;8.40;100.00;99261.56;4501349;31;20106;-69
2022/04/23 03:54:38;;;;;;;18.92;13.20;;;;;;;8.43;100.00;99253.63;4486656;31;20493;-69
2022/04/23 03:57:06;;;;;;;21.02;13.77;;;;;;;8.43;100.00;99256.25;4500041;31;20746;-69
2022/04/23 03:59:37;;;;;;;18.73;13.02;;;;;;;8.37;100.00;99256.31;4501269;31;20096;-69
2022/04/23 04:02:05;;;;;;;17.67;13.55;;;;;;;8.33;100.00;99265.16;4501442;31;20155;-69
2022/04/23 04:04:33;;;;;;;19.17;14.07;;;;;;;8.30;100.00;99263.50;4486601;31;20164;-69
2022/04/23 04:07:01;;;;;;;19.17;13.57;;;;;;;8.32;100.00;99271.31;4501259;31;20145;-69
2022/04/23 04:09:29;;;;;;;22.10;14.35;;;;;;;8.40;100.00;99274.66;4501226;31;20532;-69
2022/04/23 04:12:02;;;;;;;19.02;13.35;;;;;;;8.55;100.00;99271.75;4501382;31;20491;-69
2022/04/23 04:14:31;;;;;;;18.37;12.77;;;;;;;8.57;100.00;99276.94;4501523;31;20083;-69
2022/04/23 04:17:07;;;;;;;24.40;13.05;;;;;;;8.58;100.00;99274.28;4501067;31;20196;-69
2022/04/23 04:19:35;;;;;;;17.43;12.80;;;;;;;8.59;100.00;99280.41;4501276;31;20530;-69
2022/04/23 04:22:03;;;;;;;17.33;12.48;;;;;;;8.53;100.00;99280.53;4501085;31;20110;-69
2022/04/23 04:24:31;;;;;;;18.50;13.07;;;;;;;8.50;100.00;99284.09;4501252;31;20447;-69
2022/04/23 04:27:00;;;;;;;18.80;13.15;;;;;;;8.48;100.00;99287.63;4501069;31;20153;-69
2022/04/23 04:29:28;;;;;;;20.23;13.30;;;;;;;8.47;100.00;99285.91;4501018;31;20171;-69
2022/04/23 04:31:56;;;;;;;18.42;12.57;;;;;;;8.56;100.00;99290.97;4500823;31;20530;-69
2022/04/23 04:34:28;;;;;;;18.17;12.60;;;;;;;8.63;100.00;99286.47;4501066;31;20122;-69
2022/04/23 04:37:04;;;;;;;16.58;12.32;;;;;;;8.67;100.00;99289.00;4501150;31;20089;-69
2022/04/23 04:39:32;;;;;;;19.65;12.45;;;;;;;8.75;100.00;99292.28;4500980;31;20142;-69
2022/04/23 04:41:59;;;;;;;15.70;11.75;;;;;;;8.76;100.00;99294.06;4500853;31;20088;-70
2022/04/23 04:44:27;;;;;;;18.50;14.13;;;;;;;8.75;100.00;99294.06;4501180;31;20083;-69
2022/04/23 04:46:54;;;;;;;21.30;13.70;;;;;;;8.61;100.00;99289.97;4500760;31;20435;-69
2022/04/23 04:49:24;;;;;;;23.60;17.40;;;;;;;8.58;100.00;99289.16;4500882;31;20469;-69
2022/04/23 04:51:52;;;;;;;19.25;14.90;;;;;;;8.63;100.00;99281.22;4500714;31;20110;-69
2022/04/23 04:54:21;;;;;;;19.85;13.48;;;;;;;8.70;100.00;99288.94;4500582;31;20507;-69
2022/04/23 04:56:49;;;;;;;17.50;12.48;;;;;;;8.77;100.00;99292.28;4500578;31;20089;-69
2022/04/23 04:59:17;;;;;;;23.20;13.45;;;;;;;8.78;100.00;99289.59;4500643;31;20175;-69
2022/04/23 05:01:44;;;;;;;26.10;17.25;;;;;;;8.85;100.00;99290.34;4500649;31;20083;-69
2022/04/23 05:04:12;;;;;;;24.30;18.35;;;;;;;8.90;100.00;99295.47;4500464;31;20079;-70
2022/04/23 05:06:39;;;;;;;18.73;13.50;;;;;;;8.95;100.00;99299.75;4500463;31;20487;-69
2022/04/23 05:09:06;;;;;;;18.15;13.30;;;;;;;9.10;100.00;99298.53;4501376;31;20164;-69
2022/04/23 05:11:34;;;;;;;17.48;12.90;;;;;;;9.20;100.00;99299.19;4502425;31;20435;-69
2022/04/23 05:14:01;;;;;;;14.52;12.13;;;;;;;9.27;100.00;99303.41;4502531;31;20119;-69
2022/04/23 05:16:28;;;;;;;16.50;12.27;;;;;;;9.36;100.00;99299.66;4502524;31;20087;-70
2022/04/23 05:18:55;;;;;;;18.17;11.88;;;;;;;9.41;100.00;99297.81;4502486;31;20240;-69
2022/04/23 05:21:22;;;;;;;22.05;12.43;;;;;;;9.48;100.00;99302.88;4502601;31;20832;-69
2022/04/23 05:23:49;;;;;;;16.58;11.70;;;;;;;9.62;100.00;99306.94;4502492;31;20416;-70
2022/04/23 05:26:17;;;;;;;15.43;11.35;;;;;;;9.76;100.00;99308.28;4502491;31;20131;-69
2022/04/23 05:28:44;;;;;;;16.40;11.52;;;;;;;9.83;100.00;99309.00;4502404;31;20122;-69
2022/04/23 05:31:11;;;;;;;18.85;11.38;;;;;;;10.00;100.00;99319.06;4502323;31;20084;-69
2022/04/23 05:33:39;;;;;;;16.02;12.40;;;;;;;9.95;100.00;99321.81;4502302;31;20662;-69
2022/04/23 05:36:06;;;;;;;15.48;11.80;;;;;;;9.86;100.00;99324.72;4502470;31;20100;-69
2022/04/23 05:38:37;;;;;;;15.25;12.20;;;;;;;9.72;100.00;99316.31;4502615;31;20088;-70
2022/04/23 05:41:05;;;;;;;17.45;12.13;;;;;;;9.71;100.00;99310.16;4502332;31;20148;-69
2022/04/23 05:43:32;;;;;;;16.37;11.57;;;;;;;9.93;100.00;99322.75;4502234;31;20092;-69
2022/04/23 05:46:00;;;;;;;17.60;12.05;;;;;;;10.06;100.00;99329.44;4502285;31;20115;-70
2022/04/23 05:48:28;;;;;;;17.67;11.00;;;;;;;10.10;100.00;99325.81;4502376;31;20122;-69
2022/04/23 05:50:55;;;;;;;16.92;11.85;;;;;;;10.18;100.00;99329.13;4502496;31;20075;-70
2022/04/23 05:53:22;;;;;;;17.95;11.98;;;;;;;10.30;100.00;99335.84;4502227;31;20459;-69
2022/04/23 05:55:50;;;;;;;14.68;11.32;;;;;;;10.40;100.00;99341.72;4502366;31;20092;-69
2022/04/23 05:58:17;;;;;;;15.63;10.90;;;;;;;10.65;100.00;99334.84;4502266;31;20488;-68
2022/04/23 06:00:44;;;;;;;18.60;11.77;;;;;;;10.99;97.31;99342.62;4502192;31;20575;-68
2022/04/23 06:03:12;;;;;;;17.75;10.32;;;;;;;11.35;94.56;99341.53;4502111;31;20127;-68
2022/04/23 06:05:40;;;;;;;13.55;9.60;;;;;;;11.61;92.46;99344.19;4502119;31;20091;-67
2022/04/23 06:08:07;;;;;;;13.90;10.80;;;;;;;11.72;91.63;99336.78;4502270;31;20498;-68
2022/04/23 06:10:35;;;;;;;17.30;10.75;;;;;;;11.60;94.73;99346.88;4502177;31;20096;-67
2022/04/23 06:13:03;;;;;;;15.82;9.88;;;;;;;11.46;98.28;99344.69;4501987;31;20538;-67
2022/04/23 06:15:30;;;;;;;13.68;9.75;;;;;;;11.46;96.34;99345.56;4487361;31;20127;-67
2022/04/23 06:17:57;;;;;;;15.15;9.60;;;;;;;11.60;93.13;99346.88;4502301;31;20088;-68
2022/04/23 06:20:24;;;;;;;18.87;11.93;;;;;;;11.53;95.51;99361.19;4501155;31;20413;-67
2022/04/23 06:22:51;;;;;;;11.80;8.98;;;;;;;11.47;97.15;99357.81;4501966;31;20091;-68
2022/04/23 06:25:19;;;;;;;13.30;9.27;;;;;;;11.63;93.81;99371.41;4501828;31;20171;-68
2022/04/23 06:27:46;;;;;;;15.20;9.40;;;;;;;11.89;91.07;99360.00;4501898;31;20178;-68
2022/04/23 06:30:15;;;;;;;15.20;9.68;;;;;;;11.87;90.46;99364.50;4501952;31;20096;-68
2022/04/23 06:32:44;;;;;;;15.63;9.82;;;;;;;11.78;93.99;99371.81;4502054;31;20191;-68
2022/04/23 06:35:11;;;;;;;11.65;9.07;;;;;;;11.83;93.02;99380.41;4501883;31;20123;-68
2022/04/23 06:37:41;;;;;;;11.88;9.43;;;;;;;11.78;93.99;99382.38;4501995;31;20459;-68
2022/04/23 06:40:13;;;;;;;14.45;8.55;;;;;;;11.80;91.45;99381.41;4501949;31;20072;-68
2022/04/23 06:42:41;;;;;;;15.65;9.50;;;;;;;12.06;89.54;99391.13;4502053;31;20144;-67
2022/04/23 06:45:11;;;;;;;11.23;9.20;;;;;;;12.19;88.96;99394.19;4487352;31;20123;-68
2022/04/23 06:47:38;;;;;;;9.93;8.00;;;;;;;12.13;91.08;99391.78;4501891;31;20114;-67
2022/04/23 06:50:06;;;;;;;11.45;6.97;;;;;;;12.03;90.71;99391.22;4502129;31;20463;-68
2022/04/23 06:52:34;;;;;;;9.32;7.35;;;;;;;12.06;90.10;99399.03;4501739;31;20497;-68
2022/04/23 06:55:02;;;;;;;9.00;7.62;;;;;;;12.02;88.24;99394.78;4501624;31;20095;-68
2022/04/23 06:57:29;;;;;;;9.25;6.95;;;;;;;12.17;87.70;99398.69;4501745;31;20122;-68
2022/04/23 07:00:00;;;;;;;8.73;7.30;;;;;;;12.44;85.33;99402.16;4501731;31;20080;-68
2022/04/23 07:02:28;;;;;;;12.10;8.23;;;;;;;12.40;85.53;99409.31;4501734;31;20079;-68
2022/04/23 07:04:55;;;;;;;11.05;7.70;;;;;;;12.29;86.90;99411.44;4501671;31;20100;-68
2022/04/23 07:07:23;;;;;;;11.18;8.35;;;;;;;12.63;85.24;99411.12;4501653;31;20537;-68
2022/04/23 07:09:50;;;;;;;11.80;8.43;;;;;;;12.58;86.69;99412.19;4501569;31;20084;-68
2022/04/23 07:12:17;;;;;;;13.48;8.32;;;;;;;12.57;87.20;99418.41;4501714;31;20413;-68
2022/04/23 07:14:44;;;;;;;9.57;7.55;;;;;;;12.54;86.68;99423.81;4501485;31;20107;-68
2022/04/23 07:17:12;;;;;;;10.98;7.82;;;;;;;12.54;86.42;99422.03;4501590;31;20167;-68
2022/04/23 07:19:41;;;;;;;11.20;7.80;;;;;;;12.49;86.65;99423.13;4501618;31;20083;-68
2022/04/23 07:22:09;;;;;;;13.07;8.00;;;;;;;12.51;87.04;99418.62;4501475;31;20163;-68
2022/04/23 07:24:37;;;;;;;10.70;8.05;;;;;;;12.45;88.89;99425.00;4501506;31;20126;-68
2022/04/23 07:27:05;;;;;;;8.02;6.90;;;;;;;12.32;86.76;99418.41;4501484;31;20103;-68
2022/04/23 07:29:33;;;;;;;12.93;7.62;;;;;;;12.18;88.00;99418.88;4501531;31;20076;-68
2022/04/23 07:32:02;;;;;;;8.82;7.10;;;;;;;12.29;88.52;99427.28;4501077;31;20124;-68
2022/04/23 07:37:31;;;;;;;13.50;8.68;;;;;;;12.37;88.63;99441.12;4501537;31;20083;-68
2022/04/23 07:40:06;;;;;;;12.20;8.45;;;;;;;12.10;85.56;99445.53;4501481;31;20182;-68
2022/04/23 07:42:33;;;;;;;10.82;8.60;;;;;;;11.75;86.20;99446.66;4501692;31;20087;-68
2022/04/23 07:45:00;;;;;;;10.38;7.93;;;;;;;11.58;88.39;99444.53;4501296;31;20107;-67
2022/04/23 07:47:28;;;;;;;14.98;10.73;;;;;;;11.42;90.70;99445.94;4486605;31;20115;-68
2022/04/23 07:49:55;;;;;;;18.00;11.73;;;;;;;11.50;92.77;99454.47;4487036;31;20503;-68
2022/04/23 07:52:22;;;;;;;18.12;12.98;;;;;;;11.49;94.55;99458.03;4501416;31;20121;-67
2022/04/23 07:54:49;;;;;;;18.73;11.73;;;;;;;11.40;94.51;99459.16;4501286;31;20119;-68
2022/04/23 07:57:21;;;;;;;15.93;12.18;;;;;;;11.43;94.15;99460.84;4501494;31;20150;-68
2022/04/23 07:59:49;;;;;;;18.33;13.65;;;;;;;11.45;93.47;99459.91;4501592;31;20164;-68
2022/04/23 08:02:16;;;;;;;19.90;13.80;;;;;;;11.38;94.09;99462.78;4501296;31;20079;-67
2022/04/23 08:04:45;;;;;;;18.37;13.27;;;;;;;11.57;92.93;99468.34;4501225;31;20091;-68
2022/04/23 08:07:13;;;;;;;14.82;12.37;;;;;;;11.84;92.94;99467.53;4501329;31;20514;-67
2022/04/23 08:09:41;;;;;;;16.77;12.30;;;;;;;12.38;90.23;99461.34;4501316;31;20122;-68
2022/04/23 08:12:10;;;;;;;14.43;11.68;;;;;;;12.57;89.41;99468.63;4486794;31;20100;-68
2022/04/23 08:14:38;;;;;;;15.15;11.75;;;;;;;12.59;87.35;99478.22;4501127;31;20084;-67
2022/04/23 08:17:06;;;;;;;15.50;11.15;;;;;;;12.67;85.99;99459.47;4486475;31;20103;-68
2022/04/23 08:19:33;;;;;;;15.57;10.85;;;;;;;12.54;85.09;99464.28;4501293;31;20170;-68
2022/04/23 08:22:01;;;;;;;16.10;11.57;;;;;;;12.74;87.17;99463.62;4501075;31;20091;-68
2022/04/23 08:24:31;;;;;;;19.27;12.32;;;;;;;12.95;83.37;99469.06;4500966;31;20123;-68
2022/04/23 08:26:58;;;;;;;16.58;11.00;;;;;;;12.99;85.33;99466.25;4500973;31;20158;-68
2022/04/23 08:32:11;;;;;;;14.13;10.13;;;;;;;13.26;82.58;99472.34;4500832;31;20163;-68
2022/04/23 08:34:39;;;;;;;13.98;10.38;;;;;;;13.19;82.61;99473.44;4500840;31;20100;-68
2022/04/23 08:37:06;;;;;;;14.18;9.77;;;;;;;13.02;82.31;99475.84;4500921;31;20099;-68
2022/04/23 08:39:33;;;;;;;17.00;11.25;;;;;;;13.01;82.44;99468.84;4500983;31;20076;-68
2022/04/23 08:42:04;;;;;;;17.80;11.35;;;;;;;13.11;85.19;99464.94;4500823;31;20088;-68
2022/04/23 08:44:31;;;;;;;16.50;10.52;;;;;;;13.18;85.21;99470.84;4504594;31;20119;-68
2022/04/23 08:46:59;;;;;;;15.30;10.52;;;;;;;13.42;82.76;99466.44;4505967;31;20534;-68
2022/04/23 08:49:29;;;;;;;12.95;10.80;;;;;;;13.68;80.70;99465.47;4505990;31;20088;-68
2022/04/23 08:52:14;;;;;;;11.85;9.23;;;;;;;14.27;81.28;99467.47;4505851;31;20550;-68
2022/04/23 08:54:42;;;;;;;12.23;9.18;;;;;;;14.68;75.41;99467.53;4505929;31;20084;-68
2022/04/23 08:57:10;;;;;;;14.70;9.70;;;;;;;14.94;72.96;99477.84;4505820;31;20123;-68
2022/04/23 08:59:37;;;;;;;12.23;8.98;;;;;;;14.91;71.38;99480.66;4505849;31;20727;-68
2022/04/23 09:02:12;;;;;;;13.43;9.65;;;;;;;14.71;74.90;99488.63;4505628;31;20099;-68
2022/04/23 09:04:43;;;;;;;14.10;9.90;;;;;;;14.77;74.34;99489.22;4505717;31;20080;-68
2022/04/23 09:07:28;;;;;;;16.00;9.73;;;;;;;14.17;76.76;99495.25;4505761;31;20147;-68
2022/04/23 09:09:57;;;;;;;13.62;9.55;;;;;;;13.72;78.61;99488.25;4505653;31;20118;-67
2022/04/23 09:12:27;;;;;;;14.40;10.88;;;;;;;13.38;82.07;99492.16;4505598;31;20117;-68
2022/04/23 09:23:38;;;;;;;11.93;9.30;;;;;;;13.31;81.03;99502.12;4505498;31;20092;-68
2022/04/23 09:23:41;;;;;;;19.98;11.20;;;;;;;12.61;85.24;99507.25;4505624;31;20083;-67
2022/04/23 09:26:18;;;;;;;16.08;12.35;;;;;;;12.64;86.58;99512.41;4505401;31;20164;-68
2022/04/23 09:28:48;;;;;;;15.98;10.85;;;;;;;12.87;84.49;99509.00;4505672;31;20099;-67
2022/04/23 09:31:15;;;;;;;19.83;12.88;;;;;;;12.75;85.47;99517.34;4505282;31;20113;-67
2022/04/23 09:33:51;;;;;;;14.70;10.68;;;;;;;12.68;86.68;99512.28;4505484;31;20114;-67
2022/04/23 09:36:19;;;;;;;13.07;10.43;;;;;;;12.86;84.36;99518.72;4505456;31;20111;-67
2022/04/23 09:39:06;;;;;;;19.42;11.18;;;;;;;12.82;82.01;99514.41;4505285;31;20122;-67
2022/04/23 09:41:34;;;;;;;12.98;10.10;;;;;;;12.85;82.23;99521.41;4505484;31;20128;-67
2022/04/23 09:44:06;;;;;;;15.52;10.35;;;;;;;12.71;82.66;99516.56;4505275;31;20138;-67
2022/04/23 09:46:46;;;;;;;15.50;9.85;;;;;;;12.63;82.13;99519.50;4505234;31;20084;-67
2022/04/23 09:49:34;;;;;;;15.35;9.93;;;;;;;12.67;81.89;99521.09;4505050;31;20125;-67
2022/04/23 09:52:04;;;;;;;12.32;9.02;;;;;;;12.83;78.66;99518.81;4505031;31;20106;-68
2022/04/23 09:54:32;;;;;;;18.00;9.15;;;;;;;12.97;77.65;99518.34;4504593;31;20168;-67
2022/04/23 09:57:00;;;;;;;13.73;9.32;;;;;;;13.23;77.89;99520.03;4501625;31;20741;-68
2022/04/23 09:59:28;;;;;;;13.52;9.70;;;;;;;13.41;77.45;99520.31;4487113;31;20142;-68
2022/04/23 10:01:56;;;;;;;14.60;10.25;;;;;;;13.63;76.46;99523.84;4502408;31;20110;-67
2022/04/23 10:04:27;;;;;;;15.18;9.43;;;;;;;13.95;76.32;99532.34;4502230;31;20118;-67
2022/04/23 10:06:56;;;;;;;20.33;9.50;;;;;;;14.07;73.59;99522.13;4502235;31;20118;-67
2022/04/23 10:09:30;;;;;;;11.88;8.25;;;;;;;13.72;74.38;99530.59;4501240;31;20539;-68
2022/04/23 10:12:07;;;;;;;13.68;8.48;;;;;;;13.74;73.57;99541.97;4502187;31;20083;-67
2022/04/23 10:14:49;;;;;;;12.15;9.07;;;;;;;13.75;73.17;99539.28;4502243;31;20096;-67
2022/04/23 10:17:20;;;;;;;16.65;10.60;;;;;;;13.68;73.84;99542.22;4502021;31;20114;-67
2022/04/23 10:19:48;;;;;;;12.60;8.63;;;;;;;13.33;75.39;99547.91;4502408;31;20122;-67
2022/04/23 10:22:36;;;;;;;12.27;9.35;;;;;;;13.12;76.25;99546.00;4501813;31;20088;-67
2022/04/23 10:25:22;;;;;;;13.57;9.80;;;;;;;13.19;77.37;99542.22;4502061;31;20175;-67
2022/04/23 10:27:51;;;;;;;10.98;8.85;;;;;;;13.02;77.66;99545.47;4502005;31;20542;-67
2022/04/23 10:30:19;;;;;;;13.95;9.70;;;;;;;13.27;77.29;99544.63;4502126;31;20091;-67
2022/04/23 10:32:46;;;;;;;14.93;9.32;;;;;;;13.39;77.02;99536.22;4502187;31;20147;-68
2022/04/23 10:35:19;;;;;;;14.25;8.80;;;;;;;13.55;75.62;99539.19;4501655;31;20413;-67
2022/04/23 10:37:53;;;;;;;11.40;8.70;;;;;;;13.45;75.48;99543.09;4501905;31;20175;-68
2022/04/23 10:40:21;;;;;;;14.43;9.48;;;;;;;13.44;76.35;99533.44;4501906;31;20536;-67
2022/04/23 10:43:19;;;;;;;13.40;8.80;;;;;;;13.50;75.96;99535.81;4501886;31;20114;-68
2022/04/23 10:45:48;;;;;;;10.13;8.35;;;;;;;13.68;77.24;99544.88;4486074;31;20144;-68
2022/04/23 10:48:22;;;;;;;10.18;8.68;;;;;;;13.92;75.23;99545.69;4501770;31;20217;-67
2022/04/23 10:51:10;;;;;;;11.43;8.70;;;;;;;14.04;75.92;99550.53;4487244;31;20156;-68
2022/04/23 10:53:48;;;;;;;12.32;8.73;;;;;;;14.13;74.93;99555.44;4501763;31;20071;-68
2022/04/23 10:56:19;;;;;;;13.70;9.65;;;;;;;14.08;76.62;99558.28;4501682;31;20072;-68
2022/04/23 10:58:46;;;;;;;13.48;9.05;;;;;;;13.84;75.69;99551.28;4501614;31;20172;-68
2022/04/23 11:01:20;;;;;;;14.80;9.73;;;;;;;13.61;76.99;99557.47;4501744;31;20103;-67
2022/04/23 11:03:57;;;;;;;10.57;9.38;;;;;;;13.42;76.64;99559.06;4502023;31;20191;-67
2022/04/23 11:12:33;;;;;;;11.52;8.00;;;;;;;13.73;75.36;99556.16;4501699;31;20454;-68
2022/04/23 11:15:02;;;;;;;11.52;9.05;;;;;;;13.94;76.02;99557.09;4501510;31;20088;-67
2022/04/23 11:17:30;;;;;;;12.40;8.77;;;;;;;14.04;74.50;99563.78;4501598;31;20182;-68
2022/04/23 11:19:57;;;;;;;10.55;9.00;;;;;;;14.37;73.99;99558.91;4501641;31;20104;-68
2022/04/23 11:22:25;;;;;;;13.35;9.55;;;;;;;14.63;71.37;99557.88;4501767;31;20159;-68
2022/04/23 11:24:57;;;;;;;11.30;9.07;;;;;;;14.77;70.38;99550.22;4501580;31;20159;-68
2022/04/23 11:27:26;;;;;;;13.75;10.35;;;;;;;15.43;67.55;99557.06;4501614;31;20076;-68
2022/04/23 11:29:54;;;;;;;10.38;8.35;;;;;;;15.81;67.66;99551.84;4501635;31;20127;-68
2022/04/23 11:32:26;;;;;;;10.02;7.85;;;;;;;16.71;63.68;99556.31;4501410;31;20091;-68
2022/04/23 11:34:59;;;;;;;10.57;7.62;;;;;;;17.59;61.48;99552.63;4501471;31;20102;-68
2022/04/23 11:37:29;;;;;;;8.43;7.32;;;;;;;18.11;59.78;99556.91;4501652;31;20148;-68
2022/04/23 11:40:10;;;;;;;8.63;7.32;;;;;;;18.10;55.78;99558.72;4501616;31;20107;-68
2022/04/23 11:42:42;;;;;;;10.13;6.90;;;;;;;18.16;56.73;99560.19;4501458;31;20164;-68
2022/04/23 11:45:12;;;;;;;12.32;7.55;;;;;;;18.72;53.60;99560.56;4501442;31;20117;-68
2022/04/23 11:47:39;;;;;;;13.93;7.55;;;;;;;18.06;56.45;99562.53;4501364;31;20092;-68